createdAt,value
2023-05-20T00:00:13.039Z,2.20
2023-05-20T00:00:45.510Z,2.40
2023-05-20T00:01:17.976Z,2.90
2023-05-20T00:01:50.543Z,2.90
2023-05-20T00:02:31.868Z,2.40
2023-05-20T00:03:05.196Z,2.50
2023-05-20T00:03:37.686Z,2.40
2023-05-20T00:04:10.249Z,2.00
2023-05-20T00:04:42.631Z,2.50
2023-05-20T00:05:15.059Z,2.90
2023-05-20T00:05:47.583Z,2.70
2023-05-20T00:06:20.027Z,2.50
2023-05-20T00:06:52.519Z,2.30
2023-05-20T00:07:25.004Z,2.30
2023-05-20T00:07:57.561Z,2.40
2023-05-20T00:08:30.032Z,2.70
2023-05-20T00:09:02.553Z,2.70
2023-05-20T00:09:35.199Z,2.60
2023-05-20T00:10:07.673Z,2.40
2023-05-20T00:10:40.153Z,2.50
2023-05-20T00:11:12.607Z,2.60
2023-05-20T00:11:45.122Z,2.80
2023-05-20T00:12:17.634Z,3.40
2023-05-20T00:12:50.229Z,3.10
2023-05-20T00:13:22.671Z,2.40
2023-05-20T00:13:55.156Z,2.40
2023-05-20T00:14:27.608Z,2.40
2023-05-20T00:15:00.038Z,2.40
2023-05-20T00:15:32.809Z,2.80
2023-05-20T00:16:05.020Z,2.60
2023-05-20T00:16:37.508Z,2.90
2023-05-20T00:17:09.901Z,2.50
2023-05-20T00:17:42.482Z,2.40
2023-05-20T00:18:14.899Z,2.30
2023-05-20T00:18:47.497Z,2.60
2023-05-20T00:19:19.918Z,3.20
2023-05-20T00:19:53.013Z,2.70
2023-05-20T00:20:25.578Z,2.70
2023-05-20T00:20:58.087Z,2.70
2023-05-20T00:21:30.553Z,2.90
2023-05-20T00:22:03.100Z,2.60
2023-05-20T00:22:35.547Z,2.60
2023-05-20T00:23:08.012Z,3.00
2023-05-20T00:23:40.482Z,2.60
2023-05-20T00:24:12.930Z,2.20
2023-05-20T00:24:45.388Z,2.40
2023-05-20T00:25:17.822Z,2.30
2023-05-20T00:25:51.290Z,2.40
2023-05-20T00:26:23.717Z,2.90
2023-05-20T00:26:56.216Z,2.90
2023-05-20T00:27:28.701Z,2.70
2023-05-20T00:28:02.004Z,2.80
2023-05-20T00:28:34.433Z,2.70
2023-05-20T00:29:06.907Z,2.60
2023-05-20T00:29:39.420Z,2.50
2023-05-20T00:30:11.910Z,2.70
2023-05-20T00:30:44.383Z,2.80
2023-05-20T00:31:16.897Z,2.80
2023-05-20T00:31:49.460Z,2.70
2023-05-20T00:32:21.907Z,2.90
2023-05-20T00:32:54.266Z,3.10
2023-05-20T00:33:26.725Z,2.90
2023-05-20T00:33:59.175Z,2.30
2023-05-20T00:34:31.635Z,2.50
2023-05-20T00:35:04.095Z,2.70
2023-05-20T00:35:36.736Z,2.90
2023-05-20T00:36:09.037Z,2.50
2023-05-20T00:36:41.481Z,2.10
2023-05-20T00:37:14.005Z,2.40
2023-05-20T00:37:46.422Z,2.70
2023-05-20T00:38:18.921Z,2.60
2023-05-20T00:38:51.388Z,2.80
2023-05-20T00:39:23.868Z,2.40
2023-05-20T00:39:56.327Z,2.50
2023-05-20T00:40:28.753Z,2.80
2023-05-20T00:41:01.260Z,2.50
2023-05-20T00:41:33.748Z,2.80
2023-05-20T00:42:06.218Z,2.80
2023-05-20T00:42:38.685Z,2.40
2023-05-20T00:43:11.808Z,2.80
2023-05-20T00:43:44.285Z,2.90
2023-05-20T00:44:16.789Z,2.70
2023-05-20T00:44:49.290Z,2.40
2023-05-20T00:45:21.748Z,2.30
2023-05-20T00:45:54.222Z,2.40
2023-05-20T00:46:26.717Z,2.70
2023-05-20T00:46:59.091Z,3.10
2023-05-20T00:47:31.574Z,2.90
2023-05-20T00:48:04.132Z,2.60
2023-05-20T00:48:36.452Z,2.60
2023-05-20T00:49:08.892Z,2.40
2023-05-20T00:49:41.366Z,2.50
2023-05-20T00:50:13.816Z,2.90
2023-05-20T00:50:46.231Z,2.80
2023-05-20T00:51:18.692Z,2.70
2023-05-20T00:51:51.158Z,2.40
2023-05-20T00:52:23.599Z,2.50
2023-05-20T00:52:56.065Z,2.90
2023-05-20T00:53:28.538Z,3.30
2023-05-20T00:54:01.020Z,2.80
2023-05-20T00:54:33.470Z,2.50
2023-05-20T00:55:05.900Z,2.60
2023-05-20T00:55:38.404Z,2.50
2023-05-20T00:56:11.148Z,2.50
2023-05-20T00:56:43.570Z,2.60
2023-05-20T00:57:16.051Z,2.60
2023-05-20T00:57:48.490Z,2.60
2023-05-20T00:58:20.921Z,2.30
2023-05-20T00:58:53.461Z,2.30
2023-05-20T00:59:25.931Z,2.60
2023-05-20T00:59:58.429Z,2.50
2023-05-20T01:00:30.862Z,2.40
2023-05-20T01:01:03.392Z,2.30
2023-05-20T01:01:35.916Z,2.50
2023-05-20T01:02:08.296Z,2.50
2023-05-20T01:02:40.829Z,2.50
2023-05-20T01:03:13.215Z,2.80
2023-05-20T01:03:45.760Z,2.70
2023-05-20T01:04:18.171Z,2.30
2023-05-20T01:04:50.702Z,2.20
2023-05-20T01:05:23.142Z,2.20
2023-05-20T01:05:55.597Z,2.40
2023-05-20T01:06:28.073Z,2.40
2023-05-20T01:07:00.542Z,2.40
2023-05-20T01:07:32.988Z,2.60
2023-05-20T01:08:05.422Z,2.60
2023-05-20T01:08:37.858Z,2.50
2023-05-20T01:09:10.304Z,2.80
2023-05-20T01:09:42.770Z,2.60
2023-05-20T01:10:15.250Z,2.80
2023-05-20T01:10:47.750Z,3.00
2023-05-20T01:11:20.203Z,3.00
2023-05-20T01:11:52.671Z,3.00
2023-05-20T01:12:25.132Z,2.90
2023-05-20T01:12:57.649Z,2.70
2023-05-20T01:13:30.099Z,2.70
2023-05-20T01:14:02.558Z,2.70
2023-05-20T01:14:35.153Z,2.90
2023-05-20T01:15:07.597Z,2.80
2023-05-20T01:15:40.103Z,2.70
2023-05-20T01:16:12.575Z,2.60
2023-05-20T01:16:45.013Z,2.80
2023-05-20T01:17:17.559Z,3.20
2023-05-20T01:17:50.111Z,2.70
2023-05-20T01:18:22.583Z,2.50
2023-05-20T01:18:55.108Z,2.70
2023-05-20T01:19:27.580Z,2.80
2023-05-20T01:19:59.989Z,3.10
2023-05-20T01:20:32.785Z,2.90
2023-05-20T01:21:04.967Z,3.00
2023-05-20T01:21:37.463Z,2.80
2023-05-20T01:22:09.947Z,2.30
2023-05-20T01:22:42.459Z,2.40
2023-05-20T01:23:14.946Z,2.70
2023-05-20T01:23:47.408Z,2.80
2023-05-20T01:24:19.870Z,2.80
2023-05-20T01:24:52.386Z,2.60
2023-05-20T01:25:25.041Z,2.70
2023-05-20T01:25:57.502Z,3.00
2023-05-20T01:26:29.952Z,3.20
2023-05-20T01:27:02.435Z,3.40
2023-05-20T01:27:34.969Z,3.10
2023-05-20T01:28:07.417Z,2.60
2023-05-20T01:28:39.935Z,2.60
2023-05-20T01:29:12.408Z,2.40
2023-05-20T01:29:44.883Z,2.70
2023-05-20T01:30:17.395Z,3.00
2023-05-20T01:30:49.858Z,2.60
2023-05-20T01:31:22.386Z,2.50
2023-05-20T01:31:54.979Z,2.60
2023-05-20T01:32:27.298Z,2.80
2023-05-20T01:32:59.893Z,2.80
2023-05-20T01:33:32.361Z,3.00
2023-05-20T01:34:04.788Z,3.00
2023-05-20T01:34:37.401Z,2.50
2023-05-20T01:35:10.014Z,2.50
2023-05-20T01:35:42.506Z,2.70
2023-05-20T01:36:14.965Z,2.50
2023-05-20T01:36:47.444Z,2.90
2023-05-20T01:37:19.966Z,2.80
2023-05-20T01:37:52.421Z,2.50
2023-05-20T01:38:24.983Z,2.40
2023-05-20T01:38:57.559Z,2.60
2023-05-20T01:39:30.088Z,2.80
2023-05-20T01:40:02.604Z,2.80
2023-05-20T01:40:35.101Z,2.70
2023-05-20T01:41:07.521Z,2.70
2023-05-20T01:41:40.019Z,2.80
2023-05-20T01:42:12.501Z,2.70
2023-05-20T01:42:44.956Z,2.60
2023-05-20T01:43:17.802Z,2.80
2023-05-20T01:43:50.002Z,2.60
2023-05-20T01:44:22.471Z,3.00
2023-05-20T01:44:54.950Z,2.90
2023-05-20T01:45:27.415Z,3.00
2023-05-20T01:45:59.866Z,3.20
2023-05-20T01:46:32.734Z,3.10
2023-05-20T01:47:05.160Z,2.70
2023-05-20T01:47:37.649Z,2.70
2023-05-20T01:48:10.205Z,3.50
2023-05-20T01:48:42.645Z,3.40
2023-05-20T01:49:15.096Z,2.70
2023-05-20T01:49:47.534Z,3.00
2023-05-20T01:50:20.036Z,3.40
2023-05-20T01:50:52.496Z,3.00
2023-05-20T01:51:24.953Z,2.50
2023-05-20T01:51:57.515Z,2.70
2023-05-20T01:52:29.977Z,3.40
2023-05-20T01:53:02.494Z,3.30
2023-05-20T01:53:34.934Z,2.90
2023-05-20T01:54:07.398Z,2.80
2023-05-20T01:54:39.890Z,3.00
2023-05-20T01:55:12.347Z,2.80
2023-05-20T01:55:44.828Z,2.60
2023-05-20T01:56:17.295Z,3.10
2023-05-20T01:56:49.749Z,3.10
2023-05-20T01:57:22.217Z,2.60
2023-05-20T01:57:54.662Z,3.10
2023-05-20T01:58:27.113Z,2.90
2023-05-20T01:58:59.583Z,3.10
2023-05-20T01:59:32.117Z,3.20
2023-05-20T02:00:04.614Z,2.70
2023-05-20T02:00:37.057Z,2.20
2023-05-20T02:01:09.546Z,2.50
2023-05-20T02:01:42.019Z,2.50
2023-05-20T02:02:14.575Z,3.20
2023-05-20T02:02:47.012Z,3.40
2023-05-20T02:03:19.458Z,3.00
2023-05-20T02:03:51.865Z,3.00
2023-05-20T02:04:24.337Z,3.10
2023-05-20T02:04:56.778Z,2.80
2023-05-20T02:05:29.301Z,2.90
2023-05-20T02:06:01.787Z,3.00
2023-05-20T02:06:34.225Z,2.80
2023-05-20T02:07:06.665Z,2.90
2023-05-20T02:07:39.115Z,3.20
2023-05-20T02:08:11.601Z,3.30
2023-05-20T02:08:44.085Z,3.20
2023-05-20T02:09:16.516Z,3.00
2023-05-20T02:09:49.025Z,3.00
2023-05-20T02:10:21.538Z,3.50
2023-05-20T02:10:53.999Z,3.10
2023-05-20T02:11:26.462Z,2.60
2023-05-20T02:11:58.916Z,2.90
2023-05-20T02:12:31.388Z,3.20
2023-05-20T02:13:03.878Z,3.00
2023-05-20T02:13:36.344Z,2.80
2023-05-20T02:14:08.801Z,3.40
2023-05-20T02:14:41.279Z,3.30
2023-05-20T02:15:13.734Z,2.60
2023-05-20T02:15:46.176Z,2.80
2023-05-20T02:16:18.722Z,2.60
2023-05-20T02:16:51.267Z,2.60
2023-05-20T02:17:23.642Z,2.70
2023-05-20T02:17:56.148Z,2.60
2023-05-20T02:18:28.560Z,2.60
2023-05-20T02:19:01.079Z,2.70
2023-05-20T02:19:33.516Z,3.00
2023-05-20T02:20:05.996Z,3.30
2023-05-20T02:20:38.515Z,3.10
2023-05-20T02:21:11.033Z,3.20
2023-05-20T02:21:43.531Z,3.70
2023-05-20T02:22:15.961Z,3.50
2023-05-20T02:22:48.429Z,3.00
2023-05-20T02:23:20.888Z,3.30
2023-05-20T02:23:53.354Z,3.10
2023-05-20T02:24:25.832Z,3.10
2023-05-20T02:24:58.289Z,3.40
2023-05-20T02:25:30.771Z,3.10
2023-05-20T02:26:03.209Z,2.90
2023-05-20T02:26:35.653Z,2.80
2023-05-20T02:27:08.141Z,2.50
2023-05-20T02:27:40.619Z,2.40
2023-05-20T02:28:13.077Z,2.90
2023-05-20T02:28:45.595Z,3.20
2023-05-20T02:29:18.136Z,3.00
2023-05-20T02:29:50.613Z,3.40
2023-05-20T02:30:23.089Z,3.40
2023-05-20T02:30:55.527Z,2.50
2023-05-20T02:31:27.990Z,2.90
2023-05-20T02:32:00.451Z,3.20
2023-05-20T02:32:32.980Z,3.30
2023-05-20T02:33:05.455Z,3.40
2023-05-20T02:33:37.894Z,3.00
2023-05-20T02:34:10.306Z,2.70
2023-05-20T02:34:42.863Z,2.80
2023-05-20T02:35:15.330Z,2.50
2023-05-20T02:35:47.798Z,2.90
2023-05-20T02:36:20.273Z,3.20
2023-05-20T02:36:52.760Z,2.50
2023-05-20T02:37:25.243Z,2.60
2023-05-20T02:37:57.745Z,2.60
2023-05-20T02:38:30.191Z,2.80
2023-05-20T02:39:02.695Z,3.30
2023-05-20T02:39:35.145Z,3.10
2023-05-20T02:40:07.640Z,3.00
2023-05-20T02:40:40.144Z,3.50
2023-05-20T02:41:12.621Z,3.10
2023-05-20T02:41:45.050Z,2.90
2023-05-20T02:42:17.609Z,2.70
2023-05-20T02:42:50.121Z,2.70
2023-05-20T02:43:22.573Z,2.60
2023-05-20T02:43:55.046Z,2.50
2023-05-20T02:44:27.510Z,2.90
2023-05-20T02:44:59.966Z,3.20
2023-05-20T02:45:32.475Z,2.80
2023-05-20T02:46:05.038Z,2.90
2023-05-20T02:46:37.511Z,3.10
2023-05-20T02:47:09.926Z,2.80
2023-05-20T02:47:42.448Z,2.60
2023-05-20T02:48:14.850Z,2.50
2023-05-20T02:48:47.316Z,3.00
2023-05-20T02:49:19.811Z,3.00
2023-05-20T02:49:52.261Z,2.70
2023-05-20T02:50:24.806Z,3.00
2023-05-20T02:50:57.289Z,3.10
2023-05-20T02:51:29.759Z,3.00
2023-05-20T02:52:02.228Z,2.80
2023-05-20T02:52:34.749Z,3.20
2023-05-20T02:53:07.245Z,3.70
2023-05-20T02:53:39.698Z,3.40
2023-05-20T02:54:12.183Z,3.60
2023-05-20T02:54:44.664Z,3.40
2023-05-20T02:55:17.141Z,3.00
2023-05-20T02:55:49.634Z,3.30
2023-05-20T02:56:22.112Z,2.70
2023-05-20T02:56:54.583Z,2.90
2023-05-20T02:57:27.050Z,3.40
2023-05-20T02:57:59.525Z,3.20
2023-05-20T02:58:32.084Z,3.20
2023-05-20T02:59:04.551Z,2.90
2023-05-20T02:59:36.990Z,2.70
2023-05-20T03:00:09.454Z,2.80
2023-05-20T03:00:41.925Z,3.10
2023-05-20T03:01:14.446Z,2.90
2023-05-20T03:01:46.982Z,2.80
2023-05-20T03:02:19.351Z,2.80
2023-05-20T03:02:51.803Z,2.80
2023-05-20T03:03:24.261Z,3.10
2023-05-20T03:03:56.773Z,3.20
2023-05-20T03:04:29.214Z,3.60
2023-05-20T03:05:01.696Z,3.90
2023-05-20T03:05:34.337Z,3.50
2023-05-20T03:06:06.618Z,3.40
2023-05-20T03:06:39.124Z,3.20
2023-05-20T03:07:11.549Z,3.10
2023-05-20T03:07:44.068Z,3.50
2023-05-20T03:08:17.364Z,3.50
2023-05-20T03:08:49.863Z,2.80
2023-05-20T03:09:22.314Z,2.90
2023-05-20T03:09:54.790Z,2.80
2023-05-20T03:10:27.402Z,2.80
2023-05-20T03:10:59.882Z,3.40
2023-05-20T03:11:32.389Z,3.40
2023-05-20T03:12:04.854Z,2.60
2023-05-20T03:12:37.411Z,2.70
2023-05-20T03:13:09.899Z,3.00
2023-05-20T03:13:42.340Z,2.90
2023-05-20T03:14:14.782Z,3.20
2023-05-20T03:14:47.212Z,3.40
2023-05-20T03:15:19.690Z,3.00
2023-05-20T03:15:52.182Z,2.60
2023-05-20T03:16:24.716Z,2.50
2023-05-20T03:16:57.163Z,2.50
2023-05-20T03:17:29.648Z,2.70
2023-05-20T03:18:02.112Z,2.90
2023-05-20T03:18:34.548Z,3.00
2023-05-20T03:19:07.078Z,3.00
2023-05-20T03:19:39.509Z,3.10
2023-05-20T03:20:11.972Z,3.40
2023-05-20T03:20:44.485Z,2.80
2023-05-20T03:21:16.937Z,2.90
2023-05-20T03:21:49.464Z,3.20
2023-05-20T03:22:21.916Z,3.20
2023-05-20T03:22:54.443Z,3.00
2023-05-20T03:23:26.924Z,3.30
2023-05-20T03:23:59.377Z,3.40
2023-05-20T03:24:31.829Z,3.70
2023-05-20T03:25:04.282Z,3.60
2023-05-20T03:25:36.815Z,3.20
2023-05-20T03:26:09.279Z,2.90
2023-05-20T03:26:41.795Z,2.90
2023-05-20T03:27:14.306Z,2.80
2023-05-20T03:27:46.733Z,2.80
2023-05-20T03:28:19.218Z,3.20
2023-05-20T03:28:51.702Z,3.50
2023-05-20T03:29:24.165Z,3.40
2023-05-20T03:29:56.656Z,3.20
2023-05-20T03:30:29.448Z,2.90
2023-05-20T03:31:01.933Z,2.90
2023-05-20T03:31:34.446Z,3.00
2023-05-20T03:32:08.590Z,3.10
2023-05-20T03:32:39.354Z,3.20
2023-05-20T03:33:11.767Z,2.90
2023-05-20T03:33:44.235Z,2.80
2023-05-20T03:34:16.701Z,3.20
2023-05-20T03:34:49.175Z,3.60
2023-05-20T03:35:21.621Z,3.40
2023-05-20T03:35:54.118Z,3.10
2023-05-20T03:36:26.580Z,3.10
2023-05-20T03:36:59.161Z,3.10
2023-05-20T03:37:31.611Z,2.90
2023-05-20T03:38:04.125Z,2.90
2023-05-20T03:38:36.630Z,2.90
2023-05-20T03:39:09.104Z,3.20
2023-05-20T03:39:41.601Z,3.40
2023-05-20T03:40:14.029Z,3.50
2023-05-20T03:40:46.460Z,3.30
2023-05-20T03:41:18.915Z,2.80
2023-05-20T03:41:51.395Z,2.90
2023-05-20T03:42:23.852Z,3.10
2023-05-20T03:42:56.315Z,2.90
2023-05-20T03:43:28.763Z,3.10
2023-05-20T03:44:01.220Z,3.10
2023-05-20T03:44:33.689Z,3.00
2023-05-20T03:45:06.117Z,3.30
2023-05-20T03:45:38.618Z,3.20
2023-05-20T03:46:11.144Z,3.00
2023-05-20T03:46:43.717Z,3.10
2023-05-20T03:47:16.118Z,2.80
2023-05-20T03:47:48.633Z,3.20
2023-05-20T03:48:21.060Z,3.40
2023-05-20T03:48:54.104Z,3.60
2023-05-20T03:49:26.562Z,3.10
2023-05-20T03:49:59.084Z,3.00
2023-05-20T03:50:31.588Z,3.20
2023-05-20T03:51:04.081Z,3.00
2023-05-20T03:51:36.544Z,2.80
2023-05-20T03:52:08.959Z,3.00
2023-05-20T03:52:41.408Z,3.00
2023-05-20T03:53:13.871Z,2.80
2023-05-20T03:53:46.378Z,2.90
2023-05-20T03:54:18.841Z,3.00
2023-05-20T03:54:51.309Z,3.00
2023-05-20T03:55:23.750Z,3.00
2023-05-20T03:55:56.192Z,3.00
2023-05-20T03:56:28.671Z,3.00
2023-05-20T03:57:01.133Z,3.00
2023-05-20T03:57:33.592Z,3.30
2023-05-20T03:58:06.077Z,3.40
2023-05-20T03:58:38.536Z,2.90
2023-05-20T03:59:11.018Z,2.80
2023-05-20T03:59:43.454Z,2.70
2023-05-20T04:00:15.896Z,3.10
2023-05-20T04:00:48.342Z,3.50
2023-05-20T04:01:20.793Z,3.30
2023-05-20T04:01:53.259Z,2.90
2023-05-20T04:02:25.893Z,3.10
2023-05-20T04:02:58.255Z,3.90
2023-05-20T04:03:30.720Z,3.60
2023-05-20T04:04:03.309Z,2.90
2023-05-20T04:04:35.727Z,3.00
2023-05-20T04:05:08.182Z,3.40
2023-05-20T04:05:40.620Z,3.60
2023-05-20T04:06:13.050Z,3.20
2023-05-20T04:06:45.517Z,3.10
2023-05-20T04:07:18.005Z,3.10
2023-05-20T04:07:50.519Z,3.10
2023-05-20T04:08:23.009Z,3.10
2023-05-20T04:08:55.497Z,3.20
2023-05-20T04:09:27.917Z,3.00
2023-05-20T04:10:00.415Z,2.90
2023-05-20T04:10:32.893Z,3.30
2023-05-20T04:11:05.354Z,3.70
2023-05-20T04:11:37.844Z,3.30
2023-05-20T04:12:10.355Z,3.00
2023-05-20T04:12:42.936Z,2.60
2023-05-20T04:13:15.470Z,3.50
2023-05-20T04:13:47.967Z,3.20
2023-05-20T04:14:20.437Z,2.70
2023-05-20T04:14:52.954Z,2.70
2023-05-20T04:15:25.422Z,2.70
2023-05-20T04:15:57.854Z,3.10
2023-05-20T04:16:30.336Z,3.30
2023-05-20T04:17:02.934Z,3.20
2023-05-20T04:17:35.354Z,3.00
2023-05-20T04:18:07.936Z,2.80
2023-05-20T04:18:40.337Z,2.60
2023-05-20T04:19:12.833Z,3.00
2023-05-20T04:19:45.295Z,3.20
2023-05-20T04:20:17.762Z,3.30
2023-05-20T04:20:50.209Z,3.20
2023-05-20T04:21:22.666Z,3.10
2023-05-20T04:21:55.141Z,2.60
2023-05-20T04:22:27.599Z,2.50
2023-05-20T04:23:00.170Z,2.90
2023-05-20T04:23:32.636Z,3.20
2023-05-20T04:24:05.082Z,2.90
2023-05-20T04:24:37.562Z,2.70
2023-05-20T04:25:10.180Z,3.30
2023-05-20T04:25:42.639Z,3.20
2023-05-20T04:26:15.119Z,2.90
2023-05-20T04:26:47.590Z,3.30
2023-05-20T04:27:20.076Z,3.10
2023-05-20T04:27:52.570Z,2.90
2023-05-20T04:28:25.044Z,3.00
2023-05-20T04:28:57.498Z,3.30
2023-05-20T04:29:29.941Z,3.40
2023-05-20T04:30:02.469Z,3.10
2023-05-20T04:30:35.039Z,3.00
2023-05-20T04:31:14.634Z,3.30
2023-05-20T04:31:47.066Z,3.50
2023-05-20T04:32:19.478Z,3.10
2023-05-20T04:32:52.029Z,3.30
2023-05-20T04:33:24.442Z,3.40
2023-05-20T04:33:56.850Z,3.30
2023-05-20T04:34:29.300Z,3.30
2023-05-20T04:35:01.788Z,3.60
2023-05-20T04:35:34.496Z,3.40
2023-05-20T04:36:06.748Z,3.20
2023-05-20T04:36:39.296Z,3.40
2023-05-20T04:37:11.776Z,3.40
2023-05-20T04:37:44.264Z,3.00
2023-05-20T04:38:16.724Z,3.20
2023-05-20T04:38:49.157Z,3.60
2023-05-20T04:39:21.688Z,3.20
2023-05-20T04:39:54.177Z,2.90
2023-05-20T04:40:26.660Z,3.00
2023-05-20T04:40:59.122Z,3.20
2023-05-20T04:41:31.601Z,3.10
2023-05-20T04:42:04.070Z,2.70
2023-05-20T04:42:36.538Z,3.10
2023-05-20T04:43:08.994Z,3.00
2023-05-20T04:43:41.494Z,3.00
2023-05-20T04:44:13.946Z,3.60
2023-05-20T04:44:46.407Z,3.30
2023-05-20T04:45:18.893Z,2.80
2023-05-20T04:45:58.513Z,2.80
2023-05-20T04:46:31.044Z,3.00
2023-05-20T04:47:03.405Z,2.70
2023-05-20T04:47:35.863Z,3.00
2023-05-20T04:48:08.368Z,3.10
2023-05-20T04:48:40.776Z,2.90
2023-05-20T04:49:13.234Z,3.20
2023-05-20T04:49:45.752Z,3.10
2023-05-20T04:50:18.185Z,2.70
2023-05-20T04:50:50.655Z,3.10
2023-05-20T04:51:23.090Z,3.00
2023-05-20T04:51:55.604Z,2.70
2023-05-20T04:52:28.004Z,2.70
2023-05-20T04:53:00.458Z,2.50
2023-05-20T04:53:32.948Z,2.60
2023-05-20T04:54:05.412Z,2.80
2023-05-20T04:54:37.944Z,2.70
2023-05-20T04:55:10.429Z,2.90
2023-05-20T04:55:42.870Z,2.90
2023-05-20T04:56:15.368Z,2.50
2023-05-20T04:56:47.854Z,2.40
2023-05-20T04:57:20.355Z,2.80
2023-05-20T04:57:52.823Z,3.00
2023-05-20T04:58:25.385Z,3.10
2023-05-20T04:58:57.793Z,3.20
2023-05-20T04:59:30.303Z,3.20
2023-05-20T05:00:02.790Z,3.10
2023-05-20T05:00:35.313Z,3.00
2023-05-20T05:01:07.837Z,3.10
2023-05-20T05:01:46.975Z,3.00
2023-05-20T05:02:26.588Z,2.70
2023-05-20T05:02:59.096Z,3.00
2023-05-20T05:03:31.534Z,3.00
2023-05-20T05:04:03.947Z,2.70
2023-05-20T05:04:36.430Z,2.90
2023-05-20T05:05:08.937Z,2.90
2023-05-20T05:05:41.413Z,2.60
2023-05-20T05:06:13.946Z,2.60
2023-05-20T05:06:46.462Z,2.70
2023-05-20T05:07:18.887Z,2.70
2023-05-20T05:07:51.347Z,3.10
2023-05-20T05:08:23.927Z,2.90
2023-05-20T05:08:56.392Z,3.00
2023-05-20T05:09:28.832Z,2.70
2023-05-20T05:10:01.495Z,2.60
2023-05-20T05:10:33.760Z,2.40
2023-05-20T05:11:06.196Z,2.50
2023-05-20T05:11:38.650Z,2.50
2023-05-20T05:12:11.136Z,2.30
2023-05-20T05:12:43.610Z,2.70
2023-05-20T05:13:16.100Z,3.00
2023-05-20T05:13:48.547Z,2.90
2023-05-20T05:14:20.996Z,2.50
2023-05-20T05:14:53.513Z,2.50
2023-05-20T05:15:25.987Z,2.80
2023-05-20T05:15:58.502Z,2.80
2023-05-20T05:16:30.981Z,3.00
2023-05-20T05:17:22.786Z,3.10
2023-05-20T05:17:55.267Z,2.20
2023-05-20T05:18:27.755Z,2.00
2023-05-20T05:19:00.350Z,2.50
2023-05-20T05:19:32.796Z,2.80
2023-05-20T05:20:05.259Z,2.60
2023-05-20T05:20:37.694Z,2.60
2023-05-20T05:21:10.192Z,2.60
2023-05-20T05:21:42.625Z,2.60
2023-05-20T05:22:15.086Z,2.50
2023-05-20T05:22:47.544Z,2.30
2023-05-20T05:23:20.147Z,2.70
2023-05-20T05:23:52.645Z,2.40
2023-05-20T05:24:25.142Z,2.30
2023-05-20T05:24:57.628Z,2.70
2023-05-20T05:25:30.144Z,2.80
2023-05-20T05:26:02.668Z,2.40
2023-05-20T05:26:35.093Z,2.50
2023-05-20T05:27:07.555Z,2.80
2023-05-20T05:27:40.047Z,2.60
2023-05-20T05:28:12.523Z,2.70
2023-05-20T05:28:45.042Z,2.90
2023-05-20T05:29:17.549Z,3.00
2023-05-20T05:29:49.980Z,2.80
2023-05-20T05:30:22.478Z,2.50
2023-05-20T05:30:54.909Z,2.70
2023-05-20T05:31:27.409Z,3.40
2023-05-20T05:31:59.945Z,3.00
2023-05-20T05:32:32.489Z,2.50
2023-05-20T05:33:04.931Z,2.60
2023-05-20T05:33:37.365Z,2.40
2023-05-20T05:34:09.752Z,2.90
2023-05-20T05:34:42.345Z,3.10
2023-05-20T05:35:14.792Z,2.80
2023-05-20T05:35:47.287Z,2.80
2023-05-20T05:36:19.759Z,3.10
2023-05-20T05:36:52.262Z,3.30
2023-05-20T05:37:24.802Z,2.90
2023-05-20T05:37:57.259Z,2.80
2023-05-20T05:38:29.761Z,3.10
2023-05-20T05:39:02.228Z,3.10
2023-05-20T05:39:34.708Z,2.90
2023-05-20T05:40:07.164Z,2.90
2023-05-20T05:40:39.611Z,2.80
2023-05-20T05:41:12.112Z,2.40
2023-05-20T05:41:44.605Z,2.40
2023-05-20T05:42:17.109Z,2.50
2023-05-20T05:42:49.574Z,2.30
2023-05-20T05:43:22.016Z,2.70
2023-05-20T05:43:54.506Z,2.50
2023-05-20T05:44:26.938Z,2.30
2023-05-20T05:44:59.450Z,2.40
2023-05-20T05:45:32.048Z,2.60
2023-05-20T05:46:04.487Z,2.60
2023-05-20T05:46:36.987Z,2.50
2023-05-20T05:47:09.522Z,2.70
2023-05-20T05:47:41.967Z,3.00
2023-05-20T05:48:14.364Z,3.10
2023-05-20T05:48:46.970Z,2.80
2023-05-20T05:49:19.454Z,2.80
2023-05-20T05:49:51.927Z,2.80
2023-05-20T05:50:24.432Z,2.60
2023-05-20T05:50:57.852Z,2.60
2023-05-20T05:51:30.355Z,2.70
2023-05-20T05:52:02.862Z,2.60
2023-05-20T05:52:35.308Z,2.90
2023-05-20T05:53:07.748Z,2.80
2023-05-20T05:53:40.194Z,2.50
2023-05-20T05:54:12.713Z,2.50
2023-05-20T05:54:45.163Z,2.40
2023-05-20T05:55:17.665Z,2.30
2023-05-20T05:55:50.172Z,2.80
2023-05-20T05:56:22.626Z,3.10
2023-05-20T05:56:55.060Z,2.60
2023-05-20T05:57:27.541Z,2.70
2023-05-20T05:58:00.032Z,2.80
2023-05-20T05:58:32.507Z,2.80
2023-05-20T05:59:04.992Z,3.20
2023-05-20T05:59:37.451Z,3.20
2023-05-20T06:00:09.962Z,3.20
2023-05-20T06:00:42.491Z,3.10
2023-05-20T06:01:15.099Z,2.90
2023-05-20T06:01:47.547Z,3.10
2023-05-20T06:02:19.994Z,2.90
2023-05-20T06:02:52.681Z,2.90
2023-05-20T06:03:24.998Z,2.80
2023-05-20T06:03:57.469Z,2.60
2023-05-20T06:04:29.839Z,2.70
2023-05-20T06:05:02.299Z,3.00
2023-05-20T06:05:35.046Z,2.90
2023-05-20T06:06:07.274Z,2.30
2023-05-20T06:06:39.788Z,2.60
2023-05-20T06:07:12.227Z,2.70
2023-05-20T06:07:44.682Z,2.80
2023-05-20T06:08:17.203Z,3.00
2023-05-20T06:08:49.709Z,2.80
2023-05-20T06:09:22.165Z,2.60
2023-05-20T06:09:54.663Z,2.60
2023-05-20T06:10:27.139Z,2.70
2023-05-20T06:10:59.622Z,2.50
2023-05-20T06:11:32.088Z,2.80
2023-05-20T06:12:04.544Z,2.80
2023-05-20T06:12:37.103Z,2.70
2023-05-20T06:13:09.652Z,3.10
2023-05-20T06:13:42.118Z,3.40
2023-05-20T06:14:14.597Z,2.80
2023-05-20T06:14:47.068Z,2.70
2023-05-20T06:15:19.648Z,2.70
2023-05-20T06:15:52.099Z,2.90
2023-05-20T06:16:24.732Z,2.70
2023-05-20T06:16:57.205Z,2.30
2023-05-20T06:17:29.636Z,2.50
2023-05-20T06:18:02.159Z,2.80
2023-05-20T06:18:34.543Z,2.70
2023-05-20T06:19:07.052Z,2.90
2023-05-20T06:19:39.676Z,2.60
2023-05-20T06:20:12.054Z,2.50
2023-05-20T06:20:44.553Z,2.60
2023-05-20T06:21:17.012Z,2.80
2023-05-20T06:21:49.455Z,2.60
2023-05-20T06:22:21.917Z,2.90
2023-05-20T06:22:54.377Z,3.00
2023-05-20T06:23:26.814Z,2.50
2023-05-20T06:23:59.277Z,2.60
2023-05-20T06:24:31.737Z,3.10
2023-05-20T06:25:04.251Z,3.00
2023-05-20T06:25:36.704Z,2.80
2023-05-20T06:26:09.159Z,2.90
2023-05-20T06:26:41.639Z,2.70
2023-05-20T06:27:14.142Z,2.40
2023-05-20T06:27:46.609Z,2.60
2023-05-20T06:28:19.147Z,2.80
2023-05-20T06:28:51.688Z,2.50
2023-05-20T06:29:24.150Z,2.40
2023-05-20T06:29:56.593Z,2.50
2023-05-20T06:30:29.060Z,2.30
2023-05-20T06:31:01.563Z,2.50
2023-05-20T06:31:34.049Z,2.70
2023-05-20T06:32:06.503Z,2.40
2023-05-20T06:32:39.033Z,2.80
2023-05-20T06:33:11.486Z,3.20
2023-05-20T06:33:43.961Z,3.40
2023-05-20T06:34:16.461Z,2.70
2023-05-20T06:34:48.926Z,2.40
2023-05-20T06:35:21.420Z,2.60
2023-05-20T06:35:53.987Z,2.70
2023-05-20T06:36:26.514Z,2.80
2023-05-20T06:36:58.991Z,2.80
2023-05-20T06:37:31.544Z,2.70
2023-05-20T06:38:04.102Z,2.80
2023-05-20T06:38:36.509Z,3.00
2023-05-20T06:39:08.967Z,2.70
2023-05-20T06:39:41.405Z,2.70
2023-05-20T06:40:13.913Z,2.70
2023-05-20T06:40:46.426Z,2.60
2023-05-20T06:41:18.907Z,2.70
2023-05-20T06:41:51.401Z,2.80
2023-05-20T06:42:23.875Z,2.70
2023-05-20T06:42:56.360Z,2.60
2023-05-20T06:43:28.833Z,2.30
2023-05-20T06:44:01.356Z,2.80
2023-05-20T06:45:33.595Z,3.00
2023-05-20T06:46:05.930Z,2.60
2023-05-20T06:46:38.366Z,2.70
2023-05-20T06:47:10.788Z,3.00
2023-05-20T06:47:43.327Z,2.80
2023-05-20T06:48:15.763Z,2.50
2023-05-20T06:48:48.249Z,2.50
2023-05-20T06:49:20.722Z,2.80
2023-05-20T06:49:53.175Z,3.00
2023-05-20T06:50:25.632Z,2.40
2023-05-20T06:50:58.083Z,2.90
2023-05-20T06:51:30.548Z,3.00
2023-05-20T06:52:03.055Z,2.50
2023-05-20T06:52:35.534Z,2.70
2023-05-20T06:53:07.980Z,2.20
2023-05-20T06:53:40.465Z,2.30
2023-05-20T06:54:12.939Z,2.80
2023-05-20T06:54:45.417Z,2.90
2023-05-20T06:55:17.934Z,2.40
2023-05-20T06:55:50.387Z,2.20
2023-05-20T06:56:22.846Z,2.60
2023-05-20T06:56:55.302Z,2.70
2023-05-20T06:57:27.800Z,2.80
2023-05-20T06:58:00.235Z,2.90
2023-05-20T06:58:32.715Z,2.60
2023-05-20T06:59:05.193Z,2.50
2023-05-20T06:59:37.681Z,2.60
2023-05-20T07:00:10.142Z,2.60
2023-05-20T07:00:42.590Z,2.40
2023-05-20T07:01:16.649Z,3.20
2023-05-20T07:01:47.615Z,3.70
2023-05-20T07:02:20.073Z,3.00
2023-05-20T07:02:52.545Z,2.60
2023-05-20T07:03:25.023Z,2.80
2023-05-20T07:03:57.488Z,2.70
2023-05-20T07:04:29.911Z,2.60
2023-05-20T07:05:02.372Z,2.80
2023-05-20T07:05:35.037Z,3.20
2023-05-20T07:06:07.355Z,3.00
2023-05-20T07:06:39.809Z,2.70
2023-05-20T07:07:12.270Z,2.90
2023-05-20T07:07:44.740Z,3.00
2023-05-20T07:08:17.216Z,2.90
2023-05-20T07:08:49.666Z,2.80
2023-05-20T07:09:22.117Z,2.70
2023-05-20T07:09:54.594Z,2.60
2023-05-20T07:10:27.166Z,2.50
2023-05-20T07:10:59.548Z,2.40
2023-05-20T07:11:32.052Z,2.20
2023-05-20T07:12:04.485Z,2.30
2023-05-20T07:12:37.123Z,2.40
2023-05-20T07:13:09.405Z,2.30
2023-05-20T07:13:41.894Z,2.50
2023-05-20T07:14:14.382Z,2.60